Terminal Aerodrome Forecast
Issued by NWS

Home | Current Version | Previous Version | Text Only | Print | Product List | Glossary On
Versions: 1 2 3 4 5 6 7 8 9 10 11 12 13 14 15 16 17 18 19 20 21 22 23 24 25 26
378
FTUS46 KLOX 272353
TAFSBA
TAF
KSBA 272353Z 2800/2824 25010KT P6SM SKC
     FM280300 VRB03KT 6SM BR SCT004
     FM280800 13005KT 3SM BR BKN004
     FM281100 VRB02KT 3/4SM BR OVC002
     FM281600 16005KT 6SM BR SCT005
     FM282000 24009KT P6SM SKC=

USA.gov is the U.S. government's official web portal to all federal, state and local government web resources and services.